Time;durP1;ratioP1;P1;durP2;ratioP2;P2;SDS_P1;SDS_P2;PMS_P1;PMS_P2;Temp;Humidity;BMP_temperature;BMP_pressure;BME280_temperature;BME280_humidity;BME280_pressure;Samples;Min_cycle;Max_cycle;Signal;HPM_P1;HPM_P2
2022/01/29 00:01:17;;;;;;;;;8.33;8.33;;;;;21.38;52.70;101651.25;111300;1258;22643;-67
2022/01/29 00:03:44;;;;;;;;;11.00;9.33;;;;;21.38;52.74;101648.39;111164;1258;18664;-65
2022/01/29 00:06:11;;;;;;;;;10.33;9.00;;;;;21.37;52.55;101652.41;111123;1258;22041;-68
2022/01/29 00:08:39;;;;;;;;;9.00;7.00;;;;;21.38;52.76;101654.73;111076;1259;18881;-66
2022/01/29 00:11:11;;;;;;;;;9.00;9.00;;;;;21.38;52.74;101656.54;111233;1258;19006;-68
2022/01/29 00:13:38;;;;;;;;;9.67;9.00;;;;;21.37;52.62;101659.88;111110;1259;21853;-65
2022/01/29 00:16:05;;;;;;;;;11.00;11.00;;;;;21.35;52.48;101663.14;111169;1259;19075;-66
2022/01/29 00:18:33;;;;;;;;;9.33;7.00;;;;;21.37;52.59;101657.36;111159;1259;18971;-68
2022/01/29 00:21:00;;;;;;;;;6.67;6.33;;;;;21.35;52.37;101654.41;111214;1258;19946;-65
2022/01/29 00:23:28;;;;;;;;;9.67;7.00;;;;;21.35;52.54;101654.04;111161;1258;21808;-66
2022/01/29 00:25:55;;;;;;;;;10.00;9.00;;;;;21.36;52.56;101653.66;111185;1258;18789;-66
2022/01/29 00:28:22;;;;;;;;;10.33;8.33;;;;;21.35;52.47;101650.96;111084;1259;19477;-67
2022/01/29 00:30:50;;;;;;;;;6.33;6.00;;;;;21.31;52.33;101644.48;111176;1258;19681;-68
2022/01/29 00:33:17;;;;;;;;;9.33;9.00;;;;;21.34;52.41;101642.18;111207;1258;19068;-65
2022/01/29 00:35:44;;;;;;;;;7.00;6.50;;;;;21.34;52.46;101640.38;111179;1259;19877;-65
2022/01/29 00:38:12;;;;;;;;;7.00;7.00;;;;;21.34;52.49;101637.64;111193;1257;18428;-66
2022/01/29 00:40:39;;;;;;;;;9.33;7.00;;;;;21.33;52.45;101636.41;111225;1258;19289;-66
2022/01/29 00:43:07;;;;;;;;;7.00;7.00;;;;;21.34;52.27;101637.42;111114;1258;22733;-66
2022/01/29 00:45:34;;;;;;;;;10.33;8.33;;;;;21.33;52.29;101638.26;111182;1258;19143;-66
2022/01/29 00:48:02;;;;;;;;;7.00;6.33;;;;;21.33;52.41;101638.66;111235;1258;22706;-66
2022/01/29 00:50:30;;;;;;;;;7.00;6.67;;;;;21.34;52.36;101644.73;111100;1258;20086;-66
2022/01/29 00:52:57;;;;;;;;;9.00;7.00;;;;;21.33;52.17;101645.55;111099;1259;18604;-66
2022/01/29 00:55:24;;;;;;;;;9.00;8.00;;;;;21.33;52.37;101643.89;111232;1258;20703;-66
2022/01/29 00:57:52;;;;;;;;;7.00;6.50;;;;;21.33;52.18;101639.31;111201;1258;19904;-67
2022/01/29 01:00:19;;;;;;;;;9.50;8.00;;;;;21.34;52.07;101639.11;111180;1258;18504;-65
2022/01/29 01:02:46;;;;;;;;;7.00;6.00;;;;;21.33;52.20;101634.45;111180;1259;18684;-65
2022/01/29 01:05:13;;;;;;;;;7.67;7.00;;;;;21.33;52.13;101633.17;111164;1259;24280;-66
2022/01/29 01:07:41;;;;;;;;;7.67;7.00;;;;;21.33;52.43;101628.34;111085;1259;18397;-67
2022/01/29 01:10:08;;;;;;;;;7.00;7.00;;;;;21.32;52.32;101625.16;111140;1259;19397;-66
2022/01/29 01:12:36;;;;;;;;;9.67;9.00;;;;;21.32;52.24;101622.78;111220;1258;19529;-66
2022/01/29 01:15:03;;;;;;;;;6.00;6.00;;;;;21.33;52.22;101619.38;111068;1259;18427;-66
2022/01/29 01:17:30;;;;;;;;;9.33;7.67;;;;;21.33;52.18;101618.48;111092;1259;21521;-66
2022/01/29 01:19:57;;;;;;;;;7.67;7.00;;;;;21.32;52.00;101609.31;111204;1258;20340;-67
2022/01/29 01:22:25;;;;;;;;;6.33;6.00;;;;;21.31;52.11;101604.82;110968;1259;18984;-67
2022/01/29 01:24:52;;;;;;;;;9.00;7.00;;;;;21.31;52.13;101602.30;111076;1259;20757;-66
2022/01/29 01:27:20;;;;;;;;;7.00;6.67;;;;;21.31;52.15;101595.79;111153;1258;19473;-67
2022/01/29 01:29:47;;;;;;;;;7.00;6.00;;;;;21.31;52.12;101593.80;111177;1258;20111;-66
2022/01/29 01:32:14;;;;;;;;;6.00;6.00;;;;;21.30;51.94;101588.02;111186;1258;28614;-66
2022/01/29 01:34:46;;;;;;;;;6.33;6.33;;;;;21.30;52.01;101583.13;111045;1258;19615;-66
2022/01/29 01:37:19;;;;;;;;;9.00;9.00;;;;;21.31;52.06;101581.60;111127;1259;18527;-66
2022/01/29 01:39:47;;;;;;;;;6.00;6.00;;;;;21.30;52.00;101578.60;111150;1258;19903;-64
2022/01/29 01:42:15;;;;;;;;;9.50;7.00;;;;;21.30;52.00;101568.85;111121;1258;19646;-67
2022/01/29 01:44:44;;;;;;;;;10.00;5.00;;;;;21.30;52.07;101575.20;111083;1259;18443;-68
2022/01/29 01:47:12;;;;;;;;;6.67;6.33;;;;;21.30;51.90;101567.73;111064;1259;18863;-67
2022/01/29 01:49:39;;;;;;;;;9.00;7.67;;;;;21.30;51.94;101574.45;111198;1258;19606;-66
2022/01/29 01:52:06;;;;;;;;;6.00;6.00;;;;;21.29;51.73;101572.17;111320;1259;18554;-66
2022/01/29 01:54:34;;;;;;;;;7.67;6.00;;;;;21.29;51.88;101578.33;111276;1258;19455;-66
2022/01/29 01:57:12;;;;;;;;;7.67;7.00;;;;;21.30;51.63;101576.25;111323;1258;20214;-66
2022/01/29 01:59:39;;;;;;;;;7.00;6.33;;;;;21.30;51.67;101575.57;111272;1258;21600;-66
2022/01/29 02:02:07;;;;;;;;;6.00;6.00;;;;;21.30;51.71;101567.77;111266;1258;18712;-66
2022/01/29 02:04:34;;;;;;;;;7.00;6.67;;;;;21.29;51.82;101568.52;111074;1259;228096;-66
2022/01/29 02:07:02;;;;;;;;;5.33;5.33;;;;;21.29;51.60;101560.93;111340;1258;22806;-66
2022/01/29 02:09:31;;;;;;;;;6.67;6.67;;;;;21.28;51.71;101553.29;111288;1258;18760;-66
2022/01/29 02:11:58;;;;;;;;;6.67;6.33;;;;;21.29;51.65;101550.39;111323;1258;19614;-66
2022/01/29 02:14:29;;;;;;;;;7.00;6.00;;;;;21.29;51.66;101550.89;111277;1258;20565;-68
2022/01/29 02:16:56;;;;;;;;;6.67;6.00;;;;;21.29;51.58;101543.46;111289;1258;21768;-67
2022/01/29 02:19:24;;;;;;;;;3.00;3.00;;;;;21.27;51.60;101537.56;111261;1258;19834;-67
2022/01/29 02:21:51;;;;;;;;;7.00;6.67;;;;;21.28;51.82;101544.41;111271;1258;22220;-66
2022/01/29 02:24:18;;;;;;;;;6.00;6.00;;;;;21.29;51.65;101546.02;111237;1258;18771;-67
2022/01/29 02:26:45;;;;;;;;;6.00;5.00;;;;;21.29;51.69;101543.30;111269;1258;19617;-67
2022/01/29 02:29:14;;;;;;;;;6.00;5.00;;;;;21.27;51.56;101540.15;111238;1258;19067;-67
2022/01/29 02:31:41;;;;;;;;;9.00;7.00;;;;;21.28;51.52;101536.81;111371;1258;20913;-66
2022/01/29 02:34:08;;;;;;;;;8.33;6.00;;;;;21.27;51.40;101532.69;111244;1258;19505;-66
2022/01/29 02:36:35;;;;;;;;;6.67;6.67;;;;;21.27;51.44;101529.99;111257;1258;19907;-66
2022/01/29 02:39:03;;;;;;;;;5.00;5.00;;;;;21.26;51.50;101523.32;111247;1259;19015;-66
2022/01/29 02:41:32;;;;;;;;;6.00;5.33;;;;;21.26;51.42;101512.23;111291;1258;19763;-66
2022/01/29 02:44:03;;;;;;;;;4.33;4.33;;;;;21.27;51.60;101504.36;111322;1258;18578;-66
2022/01/29 02:46:47;;;;;;;;;6.00;5.00;;;;;21.26;51.39;101493.70;111369;1258;19020;-66
2022/01/29 02:49:15;;;;;;;;;5.00;5.00;;;;;21.26;51.34;101486.77;111344;1258;19505;-66
2022/01/29 02:51:42;;;;;;;;;5.67;5.67;;;;;21.26;51.60;101479.21;111277;1258;28815;-67
2022/01/29 02:54:09;;;;;;;;;5.00;5.00;;;;;21.26;51.26;101476.90;111258;1258;22017;-66
2022/01/29 02:56:36;;;;;;;;;5.00;5.00;;;;;21.26;51.38;101471.74;111295;1258;19528;-67
2022/01/29 02:59:04;;;;;;;;;5.33;5.33;;;;;21.25;51.27;101468.23;111270;1258;22798;-66
2022/01/29 03:01:31;;;;;;;;;6.33;5.33;;;;;21.25;51.30;101460.05;111299;1258;18875;-66
2022/01/29 03:03:58;;;;;;;;;6.00;6.00;;;;;21.26;51.25;101456.89;111278;1257;21616;-66
2022/01/29 03:06:26;;;;;;;;;6.00;6.00;;;;;21.22;51.10;101449.11;111242;1258;18978;-67
2022/01/29 03:08:53;;;;;;;;;5.00;5.00;;;;;21.24;51.23;101442.13;111237;1258;18721;-65
2022/01/29 03:11:20;;;;;;;;;5.00;5.00;;;;;21.25;51.18;101443.16;111275;1258;19524;-66
2022/01/29 03:13:47;;;;;;;;;5.00;5.00;;;;;21.26;51.17;101450.73;111266;1258;21515;-67
2022/01/29 03:16:15;;;;;;;;;6.00;6.00;;;;;21.26;51.16;101460.16;111312;1258;21603;-68
2022/01/29 03:18:42;;;;;;;;;5.00;5.00;;;;;21.27;51.13;101460.57;111306;1258;21779;-66
2022/01/29 03:21:09;;;;;;;;;6.67;6.33;;;;;21.25;50.96;101461.63;111237;1258;18458;-66
2022/01/29 03:23:36;;;;;;;;;5.00;5.00;;;;;21.25;51.07;101460.98;111237;1258;22096;-66
2022/01/29 03:26:04;;;;;;;;;5.67;5.33;;;;;21.25;51.12;101459.34;111335;1258;19962;-66
2022/01/29 03:28:32;;;;;;;;;5.67;4.33;;;;;21.26;50.97;101462.11;111228;1259;19076;-67
2022/01/29 03:30:59;;;;;;;;;3.00;3.00;;;;;21.26;51.01;101459.07;111287;1258;18845;-66
2022/01/29 03:33:26;;;;;;;;;4.00;4.00;;;;;21.24;50.93;101457.77;111245;1258;19521;-66
2022/01/29 03:35:53;;;;;;;;;5.00;5.00;;;;;21.25;51.07;101454.77;111280;1258;18654;-68
2022/01/29 03:38:20;;;;;;;;;5.00;5.00;;;;;21.24;50.96;101451.37;111328;1258;20119;-66
2022/01/29 03:40:50;;;;;;;;;5.00;4.33;;;;;21.25;50.75;101450.65;111308;1258;19420;-66
2022/01/29 03:43:26;;;;;;;;;5.00;5.00;;;;;21.25;50.91;101449.36;111255;1258;23831;-66
2022/01/29 03:45:53;;;;;;;;;4.00;4.00;;;;;21.25;50.99;101450.23;111320;1258;21189;-67
2022/01/29 03:48:21;;;;;;;;;5.00;5.00;;;;;21.24;50.81;101445.46;111257;1257;20207;-66
2022/01/29 03:50:48;;;;;;;;;3.00;3.00;;;;;21.24;50.67;101440.11;111129;1258;18641;-68
2022/01/29 03:53:15;;;;;;;;;6.00;6.00;;;;;21.24;50.88;101445.27;111235;1259;18817;-68
2022/01/29 03:55:42;;;;;;;;;5.00;4.33;;;;;21.25;50.84;101437.90;111269;1258;22700;-66
2022/01/29 03:58:10;;;;;;;;;5.00;5.00;;;;;21.24;50.85;101426.90;111281;1258;18500;-66
2022/01/29 04:00:37;;;;;;;;;5.00;5.00;;;;;21.24;50.75;101426.59;111279;1258;18924;-67
2022/01/29 04:03:04;;;;;;;;;5.67;5.67;;;;;21.24;50.66;101411.45;111253;1258;19719;-65
2022/01/29 04:05:31;;;;;;;;;6.00;5.33;;;;;21.23;50.62;101404.43;111256;1258;19894;-66
2022/01/29 04:07:59;;;;;;;;;6.67;5.67;;;;;21.23;50.63;101398.50;111334;1258;21996;-66
2022/01/29 04:10:28;;;;;;;;;5.00;4.33;;;;;21.23;50.68;101392.33;111212;1259;19601;-66
2022/01/29 04:12:56;;;;;;;;;5.00;3.00;;;;;21.22;50.72;101385.23;111256;1258;18600;-66
2022/01/29 04:15:23;;;;;;;;;5.00;5.00;;;;;21.23;50.68;101381.77;111234;1258;18721;-65
2022/01/29 04:17:50;;;;;;;;;3.00;3.00;;;;;21.22;50.73;101379.10;111240;1258;19656;-68
2022/01/29 04:20:17;;;;;;;;;5.67;5.67;;;;;21.21;50.58;101385.16;111279;1258;21670;-66
2022/01/29 04:22:45;;;;;;;;;3.00;3.00;;;;;21.23;50.62;101391.96;111258;1258;19881;-65
2022/01/29 04:25:12;;;;;;;;;5.00;4.33;;;;;21.23;50.66;101396.52;111313;1258;19557;-66
2022/01/29 04:27:42;;;;;;;;;4.33;4.33;;;;;21.23;50.66;101391.03;111281;1258;21689;-65
2022/01/29 04:30:12;;;;;;;;;6.00;6.00;;;;;21.23;50.45;101384.66;111268;1258;19204;-66
2022/01/29 04:32:59;;;;;;;;;8.33;5.67;;;;;21.23;50.38;101381.04;111030;1261;21677;-66
2022/01/29 04:35:27;;;;;;;;;5.00;5.00;;;;;21.23;50.36;101380.33;111261;1258;25007;-66
2022/01/29 04:37:54;;;;;;;;;5.00;5.00;;;;;21.22;50.45;101371.89;111295;1258;21827;-68
2022/01/29 04:40:21;;;;;;;;;6.00;5.67;;;;;21.22;50.54;101370.78;111220;1258;19712;-66
2022/01/29 04:42:48;;;;;;;;;6.00;6.00;;;;;21.22;50.27;101374.77;111378;1258;18418;-66
2022/01/29 04:45:15;;;;;;;;;6.67;6.00;;;;;21.22;50.44;101372.73;111294;1258;18808;-66
2022/01/29 04:47:43;;;;;;;;;5.00;5.00;;;;;21.20;50.43;101366.81;111277;1258;20024;-66
2022/01/29 04:50:10;;;;;;;;;5.00;5.00;;;;;21.21;50.46;101365.93;111166;1258;18668;-65
2022/01/29 04:52:37;;;;;;;;;5.00;5.00;;;;;21.21;50.42;101366.38;111075;1259;21539;-65
2022/01/29 04:55:04;;;;;;;;;5.00;5.00;;;;;21.21;50.41;101360.89;111090;1259;19612;-66
2022/01/29 04:57:32;;;;;;;;;3.67;3.67;;;;;21.21;50.25;101354.38;111126;1258;18471;-65
2022/01/29 05:00:00;;;;;;;;;6.00;6.00;;;;;21.21;50.34;101347.80;111099;1259;18750;-66
2022/01/29 05:02:27;;;;;;;;;3.67;3.00;;;;;21.20;50.22;101341.70;111108;1258;20737;-67
2022/01/29 05:04:55;;;;;;;;;5.00;5.00;;;;;21.20;50.31;101333.56;111086;1259;19575;-66
2022/01/29 05:07:22;;;;;;;;;6.00;5.67;;;;;21.20;50.28;101330.27;111294;1258;23002;-66
2022/01/29 05:09:49;;;;;;;;;5.33;3.67;;;;;21.21;50.46;101319.48;111122;1259;21894;-66
2022/01/29 05:12:24;;;;;;;;;5.00;5.00;;;;;21.20;50.31;101310.25;111170;1258;18439;-66
2022/01/29 05:15:06;;;;;;;;;5.67;5.00;;;;;21.20;50.25;101308.65;111203;1259;18856;-65
2022/01/29 05:28:33;;;;;;;;;6.33;5.00;;;;;21.19;50.15;101294.24;111207;1258;18824;-66
2022/01/29 05:31:00;;;;;;;;;5.67;5.67;;;;;21.19;50.03;101296.73;111116;1259;19369;-65
2022/01/29 05:33:28;;;;;;;;;6.00;5.00;;;;;21.20;49.93;101292.66;111123;1258;19937;-67
2022/01/29 05:35:55;;;;;;;;;5.33;5.00;;;;;21.19;49.85;101292.02;111136;1259;18531;-66
2022/01/29 05:38:22;;;;;;;;;6.00;6.00;;;;;21.19;50.01;101288.45;111093;1259;22796;-66
2022/01/29 05:40:49;;;;;;;;;6.00;5.00;;;;;21.19;49.92;101292.23;111053;1259;19554;-66
2022/01/29 05:43:16;;;;;;;;;3.00;3.00;;;;;21.19;49.85;101297.71;111128;1259;18695;-66
2022/01/29 05:45:44;;;;;;;;;4.33;4.33;;;;;21.19;49.94;101290.80;111175;1258;22096;-65
2022/01/29 05:48:11;;;;;;;;;3.33;3.33;;;;;21.20;49.89;101287.05;111142;1259;19508;-68
2022/01/29 05:50:38;;;;;;;;;6.00;5.00;;;;;21.19;49.99;101282.41;111165;1258;22253;-66
2022/01/29 05:53:05;;;;;;;;;5.00;5.00;;;;;21.19;49.92;101273.52;111291;1258;18935;-66
2022/01/29 05:55:33;;;;;;;;;3.00;3.00;;;;;21.19;49.88;101265.02;111264;1258;20546;-67
2022/01/29 05:58:00;;;;;;;;;5.00;4.33;;;;;21.19;49.79;101263.71;111366;1258;20682;-68
2022/01/29 06:00:27;;;;;;;;;6.00;5.67;;;;;21.18;49.91;101261.80;111332;1258;18698;-66
2022/01/29 06:02:55;;;;;;;;;6.00;6.00;;;;;21.18;49.91;101254.71;111277;1258;19495;-66
2022/01/29 06:05:22;;;;;;;;;6.00;6.00;;;;;21.16;49.94;101246.60;111263;1258;22187;-66
2022/01/29 06:07:50;;;;;;;;;3.00;3.00;;;;;21.18;49.90;101238.15;111283;1258;18932;-66
2022/01/29 06:10:18;;;;;;;;;4.33;4.33;;;;;21.19;49.71;101236.83;111356;1258;19771;-65
2022/01/29 06:12:45;;;;;;;;;4.33;4.33;;;;;21.18;49.69;101231.10;111295;1258;22535;-66
2022/01/29 06:15:12;;;;;;;;;5.67;4.33;;;;;21.18;49.89;101230.52;111267;1258;21692;-68
2022/01/29 06:17:39;;;;;;;;;6.33;6.00;;;;;21.18;49.81;101219.58;111261;1258;19743;-66
2022/01/29 06:20:07;;;;;;;;;5.00;5.00;;;;;21.17;49.69;101203.93;111251;1258;18589;-65
2022/01/29 06:22:34;;;;;;;;;5.67;5.00;;;;;21.18;49.77;101204.21;111238;1258;23412;-66
2022/01/29 06:25:01;;;;;;;;;5.00;5.00;;;;;21.18;49.67;101201.12;111335;1258;19493;-66
2022/01/29 06:27:28;;;;;;;;;3.00;3.00;;;;;21.18;49.64;101199.14;111386;1258;18404;-67
2022/01/29 06:29:56;;;;;;;;;6.00;5.33;;;;;21.17;49.71;101198.88;111248;1258;19715;-66
2022/01/29 06:32:23;;;;;;;;;3.00;3.00;;;;;21.18;49.89;101201.64;111347;1258;19421;-67
2022/01/29 06:34:50;;;;;;;;;3.00;3.00;;;;;21.17;49.73;101190.64;111267;1257;22334;-69
2022/01/29 06:37:18;;;;;;;;;5.33;5.00;;;;;21.18;49.78;101186.42;111303;1258;19464;-66
2022/01/29 06:39:45;;;;;;;;;4.33;4.33;;;;;21.19;49.68;101187.58;111283;1258;20264;-66
2022/01/29 06:42:12;;;;;;;;;6.67;6.00;;;;;21.19;49.87;101188.64;111343;1258;18694;-66
2022/01/29 06:44:39;;;;;;;;;6.00;5.00;;;;;21.19;49.91;101180.45;111315;1258;19337;-66
2022/01/29 06:47:06;;;;;;;;;4.00;4.00;;;;;21.21;49.75;101175.61;111295;1258;21658;-66
2022/01/29 06:49:34;;;;;;;;;6.67;5.67;;;;;21.22;49.54;101182.43;111292;1258;18401;-67
2022/01/29 06:52:01;;;;;;;;;5.67;5.00;;;;;21.22;49.71;101173.36;111348;1258;21830;-66
2022/01/29 06:54:28;;;;;;;;;5.67;5.00;;;;;21.23;49.65;101179.46;111278;1258;22742;-66
2022/01/29 06:56:55;;;;;;;;;6.00;5.00;;;;;21.22;49.74;101177.15;111303;1258;18378;-66
2022/01/29 06:59:23;;;;;;;;;8.00;6.50;;;;;21.22;49.82;101172.13;111296;1258;18715;-66
2022/01/29 07:01:50;;;;;;;;;5.33;5.33;;;;;21.22;49.84;101168.11;111277;1258;19416;-65
2022/01/29 07:04:17;;;;;;;;;5.00;5.00;;;;;21.22;49.90;101162.80;111310;1258;18517;-67
2022/01/29 07:06:44;;;;;;;;;5.67;5.67;;;;;21.23;49.75;101163.59;111322;1258;18786;-67
2022/01/29 07:09:12;;;;;;;;;5.33;5.33;;;;;21.21;49.86;101153.09;111330;1258;25078;-66
2022/01/29 07:11:41;;;;;;;;;7.00;6.00;;;;;21.24;49.60;101152.02;111264;1258;18898;-67
2022/01/29 07:14:08;;;;;;;;;4.33;3.67;;;;;21.26;49.66;101151.29;111331;1258;18819;-65
2022/01/29 07:16:35;;;;;;;;;6.00;5.50;;;;;21.25;49.89;101141.61;111305;1258;20757;-66
2022/01/29 07:19:03;;;;;;;;;5.00;5.00;;;;;21.24;49.78;101135.34;111319;1258;18551;-66
2022/01/29 07:21:30;;;;;;;;;6.00;6.00;;;;;21.24;49.78;101134.30;111298;1258;19638;-65
2022/01/29 07:23:57;;;;;;;;;7.67;7.67;;;;;21.22;49.89;101134.99;111338;1258;19576;-68
2022/01/29 07:26:25;;;;;;;;;5.00;5.00;;;;;21.22;49.72;101132.30;111280;1258;21865;-65
2022/01/29 07:28:52;;;;;;;;;9.33;9.00;;;;;21.22;49.77;101125.55;111289;1258;22527;-69
2022/01/29 07:31:19;;;;;;;;;6.67;6.33;;;;;21.23;49.97;101122.04;111393;1258;19448;-66
2022/01/29 07:33:46;;;;;;;;;7.00;6.00;;;;;21.25;49.60;101112.84;111359;1258;18613;-66
2022/01/29 07:36:14;;;;;;;;;5.00;5.00;;;;;21.29;49.77;101102.30;111344;1257;21824;-68
2022/01/29 07:38:41;;;;;;;;;6.00;5.50;;;;;21.37;50.19;101092.36;111260;1257;19544;-66
2022/01/29 07:41:09;;;;;;;;;5.67;5.67;;;;;21.43;50.18;101090.20;111326;1258;22757;-68
2022/01/29 07:43:37;;;;;;;;;9.33;8.33;;;;;21.41;50.41;101089.12;111371;1258;18808;-66
2022/01/29 07:46:04;;;;;;;;;5.67;5.00;;;;;21.38;50.59;101092.55;111302;1258;20069;-68
2022/01/29 07:48:31;;;;;;;;;6.00;5.00;;;;;21.39;50.58;101092.78;111294;1258;22800;-66
2022/01/29 07:50:58;;;;;;;;;6.00;5.67;;;;;21.38;50.60;101088.90;111288;1258;20996;-65
2022/01/29 07:53:26;;;;;;;;;5.33;5.33;;;;;21.38;50.65;101084.54;111295;1258;21483;-67
2022/01/29 07:55:53;;;;;;;;;5.67;5.67;;;;;21.37;50.62;101081.96;111258;1258;22806;-67
2022/01/29 07:58:20;;;;;;;;;6.00;5.33;;;;;21.39;50.68;101074.63;111339;1258;22112;-67
2022/01/29 08:00:50;;;;;;;;;5.50;5.50;;;;;21.39;50.60;101066.67;111339;1258;19498;-67
2022/01/29 08:03:18;;;;;;;;;6.00;6.00;;;;;21.37;50.74;101065.56;111181;1258;20515;-68
2022/01/29 08:05:45;;;;;;;;;5.00;5.00;;;;;21.36;50.54;101063.86;111160;1256;18708;-67
2022/01/29 08:08:12;;;;;;;;;9.00;7.00;;;;;21.34;50.45;101059.70;111168;1256;20158;-66
2022/01/29 08:10:39;;;;;;;;;9.67;9.00;;;;;21.34;50.50;101053.13;111680;1256;18418;-69
2022/01/29 08:13:07;;;;;;;;;7.00;6.00;;;;;21.33;50.44;101038.05;111383;1256;19700;-68
2022/01/29 08:15:34;;;;;;;;;9.00;9.00;;;;;21.34;50.56;101039.22;111302;1256;19560;-66
2022/01/29 08:18:01;;;;;;;;;9.00;7.00;;;;;21.35;50.50;101035.27;111326;1256;18698;-68
2022/01/29 08:20:28;;;;;;;;;9.00;9.00;;;;;21.34;50.26;101030.29;111346;1258;18699;-67
2022/01/29 08:22:55;;;;;;;;;9.00;8.33;;;;;21.32;50.65;101032.91;111328;1256;20998;-67
2022/01/29 08:25:23;;;;;;;;;9.00;9.00;;;;;21.32;50.54;101027.05;111238;1256;22791;-67
2022/01/29 08:27:50;;;;;;;;;9.00;9.00;;;;;21.34;50.65;101017.54;111370;1256;19322;-67
2022/01/29 08:30:17;;;;;;;;;10.00;8.00;;;;;21.36;50.56;101009.02;111196;1255;19632;-66
2022/01/29 08:32:44;;;;;;;;;10.33;9.67;;;;;21.35;50.64;100996.31;111295;1256;18851;-66
2022/01/29 08:35:14;;;;;;;;;13.00;11.00;;;;;21.35;50.67;100979.13;111321;1256;24392;-68
2022/01/29 08:37:41;;;;;;;;;10.33;9.00;;;;;21.38;50.39;100973.29;111211;1256;19532;-67
2022/01/29 08:40:08;;;;;;;;;12.00;11.00;;;;;21.39;50.56;100969.36;111205;1256;19351;-67
2022/01/29 08:42:35;;;;;;;;;13.00;11.00;;;;;21.38;50.61;100967.91;111323;1257;18700;-70
2022/01/29 08:45:03;;;;;;;;;10.00;9.33;;;;;21.39;50.74;100961.39;111290;1258;20651;-70
2022/01/29 08:47:30;;;;;;;;;12.33;11.00;;;;;21.40;50.50;100962.85;111140;1258;18697;-69
2022/01/29 08:49:57;;;;;;;;;11.00;10.67;;;;;21.41;50.40;100959.55;111181;1257;19782;-69
2022/01/29 08:52:24;;;;;;;;;11.00;10.00;;;;;21.39;50.40;100951.16;111195;1258;23316;-69
2022/01/29 08:54:52;;;;;;;;;11.00;11.00;;;;;21.40;50.24;100949.46;111315;1257;19575;-71
2022/01/29 08:57:19;;;;;;;;;13.50;10.50;;;;;21.44;50.19;100947.41;111289;1258;18870;-69
2022/01/29 08:59:46;;;;;;;;;13.00;10.50;;;;;21.43;50.17;100938.58;111218;1258;22407;-72
2022/01/29 09:02:13;;;;;;;;;13.33;12.33;;;;;21.46;50.24;100934.02;111214;1258;20298;-69
2022/01/29 09:04:41;;;;;;;;;12.33;10.67;;;;;21.48;50.37;100932.69;111326;1258;19737;-73
2022/01/29 09:07:09;;;;;;;;;13.00;13.00;;;;;21.54;50.68;100933.48;112022;1257;19478;-69
2022/01/29 09:09:40;;;;;;;;;16.33;10.00;;;;;21.59;51.11;100927.94;111316;1258;20076;-72
2022/01/29 09:12:07;;;;;;;;;14.33;13.00;;;;;21.63;51.80;100926.58;111340;1258;19363;-70
2022/01/29 09:14:34;;;;;;;;;15.00;14.00;;;;;21.66;52.56;100921.36;111337;1258;19641;-71
2022/01/29 09:17:01;;;;;;;;;16.33;14.33;;;;;21.65;53.08;100920.95;111291;1258;22403;-71
2022/01/29 09:19:29;;;;;;;;;13.33;11.67;;;;;21.65;53.22;100917.82;111369;1257;18915;-71
2022/01/29 09:21:56;;;;;;;;;18.00;14.00;;;;;21.70;53.94;100914.48;111348;1258;19600;-69
2022/01/29 09:24:23;;;;;;;;;15.67;14.00;;;;;21.75;54.60;100914.85;111323;1258;18682;-71
2022/01/29 09:26:50;;;;;;;;;11.67;11.67;;;;;21.76;54.13;100915.43;111310;1256;18935;-70
2022/01/29 09:29:18;;;;;;;;;14.00;13.00;;;;;21.75;54.25;100915.20;111311;1258;22045;-71
2022/01/29 09:31:45;;;;;;;;;14.67;12.33;;;;;21.74;54.06;100902.38;111345;1257;18896;-70
2022/01/29 09:34:12;;;;;;;;;12.00;11.00;;;;;21.73;54.23;100900.73;111119;1259;19429;-70
2022/01/29 09:36:39;;;;;;;;;12.00;10.00;;;;;21.71;53.87;100891.88;111260;1258;22329;-70
2022/01/29 09:39:07;;;;;;;;;14.00;13.00;;;;;21.68;53.88;100874.73;111290;1258;19579;-69
2022/01/29 09:41:34;;;;;;;;;14.67;13.33;;;;;21.66;53.60;100868.77;111361;1258;19437;-70
2022/01/29 09:44:01;;;;;;;;;15.67;13.00;;;;;21.66;53.82;100866.19;111158;1258;20178;-69
2022/01/29 09:46:30;;;;;;;;;15.00;11.00;;;;;21.64;53.66;100861.94;111329;1257;18689;-73
2022/01/29 09:48:57;;;;;;;;;10.00;10.00;;;;;21.64;53.53;100854.16;111277;1256;22708;-69
2022/01/29 09:51:24;;;;;;;;;12.33;10.67;;;;;21.63;54.40;100846.98;111211;1258;22475;-68
2022/01/29 09:53:51;;;;;;;;;13.00;11.67;;;;;21.64;54.29;100838.82;111291;1258;19673;-68
2022/01/29 09:56:19;;;;;;;;;14.67;12.00;;;;;21.65;54.12;100829.95;111294;1258;18808;-71
2022/01/29 09:58:46;;;;;;;;;16.00;14.00;;;;;21.66;54.10;100821.57;111082;1256;22386;-68
2022/01/29 10:01:13;;;;;;;;;13.33;10.33;;;;;21.67;54.38;100815.24;111215;1256;18799;-68
2022/01/29 10:03:40;;;;;;;;;12.33;10.67;;;;;21.68;54.69;100807.63;111316;1258;21979;-67
2022/01/29 10:06:08;;;;;;;;;12.33;11.00;;;;;21.68;54.78;100801.23;111082;1258;21996;-70
2022/01/29 10:08:35;;;;;;;;;15.67;13.67;;;;;21.67;54.46;100791.80;111144;1258;20718;-71
2022/01/29 10:11:04;;;;;;;;;15.00;10.00;;;;;21.66;54.38;100787.36;110969;1258;19448;-71
2022/01/29 10:13:31;;;;;;;;;11.00;11.00;;;;;21.66;54.50;100779.38;111309;1256;21046;-69
2022/01/29 10:15:59;;;;;;;;;15.33;11.00;;;;;21.68;54.46;100768.76;111324;1256;20200;-69
2022/01/29 10:18:26;;;;;;;;;15.00;11.00;;;;;21.68;54.38;100754.91;111334;1258;18751;-69
2022/01/29 10:20:53;;;;;;;;;13.67;13.00;;;;;21.66;54.41;100750.64;111342;1258;19451;-70
2022/01/29 10:23:20;;;;;;;;;11.00;11.00;;;;;21.63;54.26;100744.20;111303;1258;25133;-69
2022/01/29 10:25:47;;;;;;;;;18.00;16.00;;;;;21.65;53.90;100735.45;111293;1258;21952;-69
2022/01/29 10:28:15;;;;;;;;;13.00;13.00;;;;;21.66;53.87;100736.72;111398;1257;20063;-69
2022/01/29 10:30:42;;;;;;;;;13.67;13.67;;;;;21.69;53.62;100730.72;111347;1256;18680;-67
2022/01/29 10:33:09;;;;;;;;;11.00;11.00;;;;;21.69;53.65;100718.00;111325;1258;19908;-68
2022/01/29 10:35:36;;;;;;;;;12.00;11.00;;;;;21.74;53.37;100721.56;111375;1257;19520;-69
2022/01/29 10:38:04;;;;;;;;;10.33;10.33;;;;;21.75;53.57;100716.21;111302;1258;21965;-70
2022/01/29 10:40:34;;;;;;;;;15.00;11.67;;;;;21.79;53.46;100709.02;112308;1258;18737;-68
2022/01/29 10:43:01;;;;;;;;;12.67;12.67;;;;;21.76;53.42;100701.13;112383;1257;19386;-70
2022/01/29 10:45:28;;;;;;;;;10.50;10.50;;;;;21.73;53.18;100698.61;112309;1256;18833;-68
2022/01/29 10:47:56;;;;;;;;;12.00;11.67;;;;;21.77;53.29;100693.93;111369;1256;18900;-69
2022/01/29 10:50:23;;;;;;;;;14.00;11.00;;;;;21.81;52.98;100686.04;111364;1256;22549;-70
2022/01/29 10:52:51;;;;;;;;;13.33;11.00;;;;;21.80;52.72;100682.34;111331;1258;19590;-69
2022/01/29 10:55:18;;;;;;;;;12.00;10.67;;;;;21.76;52.85;100674.81;111323;1258;21017;-68
2022/01/29 10:57:45;;;;;;;;;10.33;9.67;;;;;21.71;52.81;100666.63;111352;1258;19506;-67
2022/01/29 11:00:12;;;;;;;;;14.00;14.00;;;;;21.66;52.83;100656.25;111348;1258;18804;-66
2022/01/29 11:02:40;;;;;;;;;11.67;10.00;;;;;21.63;52.75;100656.05;111331;1257;19502;-67
2022/01/29 11:05:07;;;;;;;;;12.33;11.00;;;;;21.58;52.23;100644.42;111356;1258;19472;-66
2022/01/29 11:07:34;;;;;;;;;10.33;10.33;;;;;21.53;52.35;100643.08;111311;1258;18789;-67
2022/01/29 11:10:02;;;;;;;;;11.00;11.00;;;;;21.49;52.41;100637.39;111381;1257;19559;-70
2022/01/29 11:12:30;;;;;;;;;13.00;11.00;;;;;21.46;52.45;100636.58;111401;1258;19566;-68
2022/01/29 11:14:58;;;;;;;;;14.00;11.00;;;;;21.44;52.53;100627.33;111313;1256;18828;-69
2022/01/29 11:17:26;;;;;;;;;14.00;13.00;;;;;21.43;52.16;100621.52;111328;1258;30351;-68
2022/01/29 11:19:53;;;;;;;;;10.67;10.67;;;;;21.44;52.31;100610.59;111298;1258;19563;-70
2022/01/29 11:22:20;;;;;;;;;11.00;10.00;;;;;21.40;52.37;100605.86;111429;1257;18803;-68
2022/01/29 11:24:47;;;;;;;;;13.00;11.67;;;;;21.37;52.19;100597.92;111351;1258;21102;-67